Time;durP1;ratioP1;P1;durP2;ratioP2;P2;SDS_P1;SDS_P2;PMS_P1;PMS_P2;Temp;Humidity;BMP_temperature;BMP_pressure;BME280_temperature;BME280_humidity;BME280_pressure;Samples;Min_cycle;Max_cycle;Signal;HPM_P1;HPM_P2
2024/01/04 00:03:19;;;;;;;1.90;1.10;;;;;;;7.46;100.00;96997.34;271898;1267;22780;-87
2024/01/04 00:09:21;;;;;;;3.20;1.20;;;;;;;7.30;100.00;96995.67;272084;1280;22208;-87
2024/01/04 00:15:27;;;;;;;2.00;0.90;;;;;;;7.18;100.00;96993.90;272155;1285;22283;-86
2024/01/04 00:21:31;;;;;;;5.20;1.70;;;;;;;7.04;100.00;96991.75;271939;1283;22182;-86
2024/01/04 00:27:33;;;;;;;2.50;1.20;;;;;;;6.90;100.00;96989.98;271081;1281;22237;-86
2024/01/04 00:33:35;;;;;;;3.50;1.30;;;;;;;6.76;100.00;96983.23;271657;1279;22419;-86
2024/01/04 00:39:37;;;;;;;3.30;1.10;;;;;;;6.65;100.00;96974.90;271620;1276;22342;-86
2024/01/04 00:45:39;;;;;;;2.90;1.30;;;;;;;6.56;100.00;96969.67;271617;1283;22287;-86
2024/01/04 00:51:43;;;;;;;3.10;1.20;;;;;;;6.53;100.00;96955.80;271668;1264;23676;-86
2024/01/04 00:57:45;;;;;;;5.00;1.30;;;;;;;6.50;100.00;96947.89;271821;1280;22238;-86
2024/01/04 01:03:48;;;;;;;4.60;1.30;;;;;;;6.45;100.00;96938.82;271792;1285;22283;-86
2024/01/04 01:09:52;;;;;;;2.60;1.00;;;;;;;6.35;100.00;96938.17;271750;1280;22309;-87
2024/01/04 01:15:54;;;;;;;3.00;1.20;;;;;;;6.26;100.00;96933.26;271736;1280;22227;-86
2024/01/04 01:21:56;;;;;;;2.40;1.00;;;;;;;6.32;100.00;96937.11;271699;1277;24216;-86
2024/01/04 01:27:57;;;;;;;2.80;1.00;;;;;;;6.38;100.00;96935.99;269490;1278;23708;-86
2024/01/04 01:34:00;;;;;;;2.80;1.50;;;;;;;6.33;100.00;96937.42;271208;1280;22225;-86
2024/01/04 01:40:07;;;;;;;3.10;1.50;;;;;;;6.24;100.00;96936.52;271882;1277;22380;-86
2024/01/04 01:46:09;;;;;;;3.30;1.20;;;;;;;6.20;100.00;96933.98;271608;1277;22343;-86
2024/01/04 01:52:12;;;;;;;4.30;1.40;;;;;;;6.18;100.00;96931.98;271702;1279;23093;-86
2024/01/04 01:58:21;;;;;;;2.40;1.20;;;;;;;6.17;100.00;96936.71;271845;1280;22682;-87
2024/01/04 02:04:32;;;;;;;2.90;0.90;;;;;;;6.20;100.00;96938.33;271084;1280;25059;-87
2024/01/04 02:10:34;;;;;;;1.30;0.80;;;;;;;6.53;100.00;96948.18;271340;1277;22340;-87
2024/01/04 02:16:37;;;;;;;2.10;0.90;;;;;;;6.81;100.00;96966.03;271733;1278;23797;-86
2024/01/04 02:22:57;;;;;;;;;;;;;;;;;;;;;
2024/01/04 02:29:13;;;;;;;2.30;1.10;;;;;;;7.05;100.00;96993.53;269573;1273;22833;-87
2024/01/04 02:35:30;;;;;;;2.20;0.80;;;;;;;7.08;100.00;96991.42;270351;1265;103708;-93
2024/01/04 02:41:33;;;;;;;0.90;0.50;;;;;;;7.03;100.00;96997.81;269400;1277;22177;-91
2024/01/04 02:47:36;;;;;;;5.90;0.70;;;;;;;6.94;100.00;96997.33;269373;1277;22571;-91
2024/01/04 02:53:40;;;;;;;1.80;0.60;;;;;;;6.88;100.00;96998.23;268942;1276;23056;-91
2024/01/04 02:59:45;;;;;;;1.30;0.50;;;;;;;6.82;100.00;96984.38;269113;1276;23552;-91
2024/01/04 03:05:54;;;;;;;2.50;0.50;;;;;;;6.75;100.00;96967.77;269118;1276;22661;-92
2024/01/04 03:12:01;;;;;;;3.30;0.70;;;;;;;6.68;100.00;96962.00;269155;1276;23205;-92
2024/01/04 03:18:04;;;;;;;1.30;0.60;;;;;;;6.61;100.00;96951.86;268965;1277;25499;-91
2024/01/04 03:24:10;;;;;;;7.50;1.70;;;;;;;6.53;100.00;96938.78;268676;1276;23494;-91
2024/01/04 03:36:21;;;;;;;2.50;0.70;;;;;;;6.47;100.00;96939.98;263743;1300;544972;-92
2024/01/04 03:42:28;;;;;;;1.90;0.70;;;;;;;6.41;100.00;96935.98;268293;1282;24017;-92
2024/01/04 03:48:32;;;;;;;2.80;0.80;;;;;;;6.40;100.00;96926.11;266209;1271;3902801;-91
2024/01/04 03:54:36;;;;;;;4.10;0.80;;;;;;;6.39;100.00;96921.30;268646;1278;24007;-93
2024/01/04 04:00:47;;;;;;;1.70;0.80;;;;;;;6.37;100.00;96917.82;268706;1279;22552;-92
2024/01/04 04:06:51;;;;;;;1.70;1.00;;;;;;;6.36;100.00;96910.15;268957;1279;22536;-91
2024/01/04 04:12:53;;;;;;;2.50;1.00;;;;;;;6.35;100.00;96905.96;268717;1275;22556;-90
2024/01/04 04:18:55;;;;;;;4.20;0.90;;;;;;;6.34;100.00;96908.06;268800;1281;22583;-91
2024/01/04 04:24:58;;;;;;;2.00;0.70;;;;;;;6.33;100.00;96909.94;268714;1279;22573;-91
2024/01/04 04:31:00;;;;;;;4.00;1.00;;;;;;;6.30;100.00;96910.19;269770;1279;22524;-91
2024/01/04 04:37:03;;;;;;;1.70;1.10;;;;;;;6.29;100.00;96906.85;269867;1279;23600;-91
2024/01/04 04:43:06;;;;;;;5.00;2.10;;;;;;;6.28;100.00;96911.28;269474;1279;22577;-92
2024/01/04 04:49:09;;;;;;;6.90;3.00;;;;;;;6.26;100.00;96909.34;270107;1276;22567;-92
2024/01/04 04:55:11;;;;;;;8.60;2.50;;;;;;;6.23;100.00;96900.13;270058;1273;24416;-91
2024/01/04 05:01:14;;;;;;;1.70;0.90;;;;;;;6.20;100.00;96905.27;269970;1273;22659;-92
2024/01/04 05:07:16;;;;;;;2.10;0.90;;;;;;;6.18;100.00;96906.13;269858;1273;22555;-92
2024/01/04 05:13:20;;;;;;;1.20;0.80;;;;;;;6.17;100.00;96904.66;270089;1273;25306;-91
2024/01/04 05:19:23;;;;;;;11.00;4.00;;;;;;;6.17;100.00;96904.98;269905;1273;22546;-91
2024/01/04 05:25:26;;;;;;;10.10;3.70;;;;;;;6.16;100.00;96905.13;270476;1272;22602;-92
2024/01/04 05:31:30;;;;;;;8.70;2.90;;;;;;;6.14;100.00;96912.98;270607;1269;23409;-91
2024/01/04 05:37:32;;;;;;;12.20;3.90;;;;;;;6.15;100.00;96918.18;270608;1270;22595;-92
2024/01/04 05:43:40;;;;;;;8.80;4.00;;;;;;;6.14;100.00;96925.55;270996;1268;22562;-90
2024/01/04 05:49:43;;;;;;;7.40;3.40;;;;;;;6.11;100.00;96941.47;273606;1272;111207;-88
2024/01/04 05:55:45;;;;;;;4.20;1.90;;;;;;;6.11;100.00;96951.17;273174;1263;22492;-88
2024/01/04 06:01:47;;;;;;;6.30;4.20;;;;;;;6.14;100.00;96958.30;273162;1270;23177;-89
2024/01/04 06:07:49;;;;;;;8.70;5.10;;;;;;;6.18;100.00;96970.79;273508;1269;23611;-89
2024/01/04 06:13:51;;;;;;;4.40;1.90;;;;;;;6.22;100.00;96982.34;273336;1269;22309;-89
2024/01/04 06:19:53;;;;;;;3.20;1.50;;;;;;;6.27;100.00;96990.94;270758;1271;23436;-89
2024/01/04 06:25:56;;;;;;;4.00;1.40;;;;;;;6.29;100.00;96998.23;273241;1270;22445;-89
2024/01/04 06:31:57;;;;;;;7.90;1.50;;;;;;;6.32;100.00;97009.33;273409;1270;22846;-89
2024/01/04 06:37:59;;;;;;;4.00;1.40;;;;;;;6.31;100.00;97013.44;273236;1269;24035;-90
2024/01/04 06:44:01;;;;;;;2.90;1.40;;;;;;;6.29;100.00;97016.86;273046;1269;23924;-89
2024/01/04 06:50:04;;;;;;;4.10;1.40;;;;;;;6.28;100.00;97015.30;273109;1269;22857;-87
2024/01/04 06:56:07;;;;;;;3.30;1.70;;;;;;;6.26;100.00;97016.86;272908;1269;22939;-89
2024/01/04 07:02:08;;;;;;;7.70;2.90;;;;;;;6.25;100.00;97021.68;270681;1270;23037;-88
2024/01/04 07:08:10;;;;;;;8.10;3.40;;;;;;;6.25;100.00;97017.80;272067;1270;22376;-89
2024/01/04 07:14:12;;;;;;;6.10;3.70;;;;;;;6.26;100.00;97022.54;271374;1270;26185;-89
2024/01/04 07:20:15;;;;;;;4.20;2.50;;;;;;;6.26;100.00;97019.28;271101;1270;22392;-87
2024/01/04 07:26:17;;;;;;;7.80;3.20;;;;;;;6.27;100.00;97020.36;273349;1269;22471;-89
2024/01/04 07:32:21;;;;;;;9.30;4.30;;;;;;;6.29;100.00;97014.52;272309;1275;24209;-89
2024/01/04 07:38:23;;;;;;;12.40;7.50;;;;;;;6.34;100.00;97014.81;271135;1269;23147;-88
2024/01/04 07:44:25;;;;;;;12.70;8.40;;;;;;;6.35;100.00;97011.86;272612;1270;22350;-90
2024/01/04 07:50:27;;;;;;;8.50;5.20;;;;;;;6.36;100.00;97007.97;271510;1270;22634;-87
2024/01/04 07:56:29;;;;;;;13.50;6.60;;;;;;;6.41;100.00;97004.15;271054;1267;22623;-88
2024/01/04 08:02:32;;;;;;;12.50;5.20;;;;;;;6.45;100.00;97005.92;271213;1269;22465;-88
2024/01/04 08:08:35;;;;;;;9.60;5.50;;;;;;;6.51;100.00;97009.70;273262;1269;22203;-87
2024/01/04 08:14:37;;;;;;;9.10;5.60;;;;;;;6.59;100.00;97020.46;272963;1270;22729;-89
2024/01/04 08:20:39;;;;;;;10.60;5.40;;;;;;;6.67;100.00;97027.71;272655;1269;22434;-88
2024/01/04 08:26:41;;;;;;;9.50;4.50;;;;;;;6.75;100.00;97027.21;273287;1269;22912;-89
2024/01/04 08:33:03;;;;;;;5.60;2.60;;;;;;;6.84;100.00;97027.09;273195;1270;22419;-89
2024/01/04 08:39:27;;;;;;;5.40;3.10;;;;;;;6.97;100.00;97031.83;272979;1267;22232;-89
2024/01/04 08:45:33;;;;;;;4.70;1.90;;;;;;;7.09;100.00;97041.62;272596;1270;22633;-89
2024/01/04 08:51:59;;;;;;;4.00;2.20;;;;;;;7.20;100.00;97049.33;272240;1270;22538;-93
2024/01/04 08:58:05;;;;;;;4.90;2.70;;;;;;;7.35;100.00;97051.08;270749;1270;23565;-91
2024/01/04 09:04:07;;;;;;;3.80;2.20;;;;;;;7.49;100.00;97058.13;272741;1254;22580;-90
2024/01/04 09:10:13;;;;;;;5.20;2.30;;;;;;;7.59;100.00;97060.54;272330;1271;23103;-90
2024/01/04 09:16:15;;;;;;;3.70;2.00;;;;;;;7.66;100.00;97065.93;273017;1269;22493;-89
2024/01/04 09:22:18;;;;;;;3.40;1.40;;;;;;;7.74;100.00;97062.83;272838;1269;23030;-90
2024/01/04 09:28:23;;;;;;;7.30;3.00;;;;;;;7.81;100.00;97059.96;273122;1273;23034;-90
2024/01/04 09:34:28;;;;;;;3.00;1.60;;;;;;;7.91;100.00;97052.72;272946;1269;22291;-91
2024/01/04 09:40:34;;;;;;;3.40;1.10;;;;;;;8.13;100.00;97058.81;273377;1270;22457;-90
2024/01/04 09:46:41;;;;;;;4.10;1.50;;;;;;;8.28;100.00;97050.65;273645;1274;22199;-92
2024/01/04 09:52:44;;;;;;;3.10;1.20;;;;;;;8.51;100.00;97046.81;273109;1275;22536;-90
2024/01/04 09:58:48;;;;;;;3.80;1.40;;;;;;;8.89;100.00;97039.39;271033;1269;22403;-91
2024/01/04 10:04:53;;;;;;;1.80;1.00;;;;;;;9.06;100.00;97037.42;272292;1269;22723;-92
2024/01/04 10:11:16;;;;;;;2.00;0.90;;;;;;;8.97;100.00;97041.54;271520;1269;22788;-89
2024/01/04 10:17:20;;;;;;;2.50;0.80;;;;;;;8.84;100.00;97041.10;271010;1269;24299;-92
2024/01/04 10:23:27;;;;;;;2.20;1.00;;;;;;;8.71;100.00;97046.09;270569;1269;22645;-90
2024/01/04 10:29:38;;;;;;;2.30;1.00;;;;;;;8.65;100.00;97058.96;272043;1269;22456;-92
2024/01/04 10:36:28;;;;;;;2.50;1.30;;;;;;;8.61;100.00;97071.02;270655;1269;23440;-93
2024/01/04 10:42:30;;;;;;;1.70;0.80;;;;;;;8.53;100.00;97082.70;270697;1269;23703;-92
2024/01/04 10:48:35;;;;;;;1.60;0.90;;;;;;;8.42;100.00;97084.55;270792;1269;22347;-91
2024/01/04 10:54:51;;;;;;;3.90;1.40;;;;;;;8.26;100.00;97079.71;273058;1269;22444;-90
2024/01/04 11:00:57;;;;;;;2.80;1.20;;;;;;;8.10;100.00;97068.73;271171;1269;22208;-88
2024/01/04 11:07:07;;;;;;;4.10;1.70;;;;;;;8.02;100.00;97067.08;270462;1269;25306;-91
2024/01/04 11:13:09;;;;;;;3.10;1.50;;;;;;;8.01;100.00;97060.64;270560;1269;22321;-89
2024/01/04 11:19:34;;;;;;;3.20;1.50;;;;;;;8.01;100.00;97059.71;272200;1270;22411;-91
2024/01/04 11:25:45;;;;;;;2.90;1.30;;;;;;;8.02;100.00;97065.07;272014;1269;22584;-88
2024/01/04 11:31:47;;;;;;;4.30;1.90;;;;;;;8.02;100.00;97068.73;270671;1267;22552;-91
2024/01/04 11:37:55;;;;;;;4.90;1.40;;;;;;;8.07;100.00;97071.17;271076;1269;22701;-92
2024/01/04 11:43:58;;;;;;;2.80;1.70;;;;;;;8.11;100.00;97082.42;271073;1268;22672;-90
2024/01/04 11:50:03;;;;;;;3.10;1.20;;;;;;;8.02;100.00;97087.72;271119;1269;22361;-91
2024/01/04 11:56:32;;;;;;;4.40;1.50;;;;;;;7.86;100.00;97091.44;271346;1269;23881;-92
2024/01/04 12:02:36;;;;;;;2.30;1.40;;;;;;;7.72;100.00;97088.14;270144;1269;22554;-90
2024/01/04 12:08:39;;;;;;;6.70;2.20;;;;;;;7.64;100.00;97094.42;270741;1269;23860;-89
2024/01/04 12:14:44;;;;;;;4.70;1.90;;;;;;;7.61;100.00;97094.15;271767;1269;22304;-90
2024/01/04 12:21:03;;;;;;;6.80;2.30;;;;;;;7.63;100.00;97093.73;270815;1254;23673;-89
2024/01/04 12:27:08;;;;;;;6.00;2.10;;;;;;;7.71;100.00;97096.31;271052;1269;22619;-91
2024/01/04 12:33:09;;;;;;;6.40;2.20;;;;;;;7.77;100.00;97094.70;271621;1270;22184;-92
2024/01/04 12:39:15;;;;;;;3.40;1.50;;;;;;;7.83;100.00;97104.48;272656;1253;23302;-92
2024/01/04 12:45:17;;;;;;;4.00;1.70;;;;;;;7.89;100.00;97110.64;271623;1269;24391;-91
2024/01/04 12:51:28;;;;;;;2.60;1.30;;;;;;;7.91;100.00;97119.49;271325;1269;22249;-90
2024/01/04 12:57:32;;;;;;;3.50;1.20;;;;;;;7.88;100.00;97133.14;272172;1269;23121;-91
2024/01/04 13:03:59;;;;;;;2.40;1.40;;;;;;;7.83;100.00;97151.16;272164;1269;22245;-92
2024/01/04 13:10:19;;;;;;;2.50;0.90;;;;;;;7.67;100.00;97184.34;270653;1269;22586;-91
2024/01/04 13:16:28;;;;;;;4.80;0.70;;;;;;;6.83;100.00;97200.12;270773;1269;23640;-92
2024/01/04 13:23:02;;;;;;;2.20;0.90;;;;;;;6.10;100.00;97204.44;270826;1269;22569;-89
2024/01/04 13:29:08;;;;;;;3.60;1.10;;;;;;;5.83;100.00;97228.54;270482;1269;23096;-92
2024/01/04 13:35:18;;;;;;;4.90;1.30;;;;;;;5.70;100.00;97240.52;271212;1269;22613;-90
2024/01/04 13:41:44;;;;;;;2.70;1.40;;;;;;;5.67;100.00;97222.77;270160;1269;25508;-92
2024/01/04 13:48:08;;;;;;;3.70;1.50;;;;;;;5.66;100.00;97217.39;269673;1274;22751;-92
2024/01/04 13:54:11;;;;;;;2.80;1.20;;;;;;;5.64;100.00;97215.38;270185;1264;22606;-88
2024/01/04 14:00:14;;;;;;;5.20;2.20;;;;;;;5.64;100.00;97228.88;270886;1272;22483;-89
2024/01/04 14:06:18;;;;;;;3.30;2.00;;;;;;;5.64;100.00;97238.33;271603;1273;22429;-88
2024/01/04 14:12:21;;;;;;;4.20;2.50;;;;;;;5.58;100.00;97222.17;272134;1273;23988;-89
2024/01/04 14:18:25;;;;;;;11.80;4.90;;;;;;;5.57;100.00;97196.83;270967;1275;22434;-88
2024/01/04 14:24:32;;;;;;;;;;;;;;;5.51;100.00;97187.20;272691;1274;22524;-87
2024/01/04 14:30:37;;;;;;;18.20;7.50;;;;;;;5.55;100.00;97199.77;270953;1274;23382;-89
2024/01/04 14:36:42;;;;;;;7.60;4.50;;;;;;;5.52;100.00;97204.48;272646;1274;22315;-88
2024/01/04 14:42:44;;;;;;;8.30;4.10;;;;;;;5.43;100.00;97207.65;271189;1263;24319;-89
2024/01/04 14:48:48;;;;;;;9.90;4.70;;;;;;;5.42;100.00;97214.01;270399;1272;22681;-88
2024/01/04 14:54:53;;;;;;;8.50;4.10;;;;;;;5.39;100.00;97213.69;270843;1272;22698;-89
2024/01/04 15:00:56;;;;;;;6.40;4.20;;;;;;;5.36;100.00;97214.54;271715;1270;22346;-89
2024/01/04 15:06:58;;;;;;;13.60;6.30;;;;;;;5.30;100.00;97212.96;272686;1271;22354;-91
2024/01/04 15:13:08;;;;;;;14.00;6.90;;;;;;;5.42;100.00;97217.96;270384;1270;22689;-91
2024/01/04 15:19:20;;;;;;;12.00;7.10;;;;;;;5.63;100.00;97216.93;270373;1270;22564;-90
2024/01/04 15:25:22;;;;;;;11.70;5.20;;;;;;;5.75;100.00;97208.88;270850;1270;22537;-90
2024/01/04 15:32:09;;;;;;;6.40;3.10;;;;;;;5.84;100.00;97218.92;271352;1270;23510;-91
2024/01/04 15:38:25;;;;;;;7.20;2.90;;;;;;;6.05;100.00;97240.61;272218;1270;22557;-91
2024/01/04 15:44:33;;;;;;;3.50;1.70;;;;;;;6.23;100.00;97247.76;272846;1270;25400;-92
2024/01/04 15:50:40;;;;;;;3.60;1.70;;;;;;;6.34;100.00;97261.64;271222;1272;193381;-89
2024/01/04 15:56:46;;;;;;;5.70;1.80;;;;;;;6.41;100.00;97278.41;272487;1272;22995;-92
2024/01/04 16:03:01;;;;;;;8.40;2.70;;;;;;;6.43;100.00;97276.41;270680;1272;22665;-91
2024/01/04 16:09:41;;;;;;;5.60;1.80;;;;;;;6.33;100.00;97271.98;271104;1270;22568;-90
2024/01/04 16:15:59;;;;;;;4.30;1.80;;;;;;;6.22;100.00;97271.58;273030;1275;22183;-89
2024/01/04 16:22:05;;;;;;;5.30;1.60;;;;;;;6.13;100.00;97274.06;273081;1269;22951;-88
2024/01/04 16:28:11;;;;;;;3.80;1.90;;;;;;;6.09;100.00;97284.30;273460;1272;23123;-91
2024/01/04 16:34:43;;;;;;;4.70;2.30;;;;;;;6.11;100.00;97283.60;271211;1269;22593;-94
2024/01/04 16:40:51;;;;;;;3.20;1.30;;;;;;;6.16;100.00;97273.61;270643;1271;22582;-92
2024/01/04 16:47:06;;;;;;;4.40;0.90;;;;;;;6.15;100.00;97291.14;272512;1269;22483;-92
2024/01/04 16:53:18;;;;;;;2.00;1.10;;;;;;;5.94;100.00;97309.95;271945;1269;22297;-93
2024/01/04 16:59:23;;;;;;;2.20;0.80;;;;;;;5.71;100.00;97316.39;272574;1269;22563;-90
2024/01/04 17:05:35;;;;;;;4.20;1.20;;;;;;;5.57;100.00;97327.81;270804;1269;24315;-91
2024/01/04 17:11:45;;;;;;;2.50;1.40;;;;;;;5.49;100.00;97345.37;270967;1269;26669;-90
2024/01/04 17:17:49;;;;;;;4.10;1.70;;;;;;;5.42;100.00;97345.58;271082;1269;22362;-89
2024/01/04 17:24:03;;;;;;;2.40;1.50;;;;;;;5.36;100.00;97349.41;271994;1269;22494;-92
2024/01/04 17:30:10;;;;;;;4.60;2.00;;;;;;;5.35;100.00;97348.17;273772;1269;23376;-89
2024/01/04 17:36:16;;;;;;;3.70;2.00;;;;;;;5.37;100.00;97342.52;273261;1269;23629;-87
2024/01/04 17:42:20;;;;;;;6.40;2.50;;;;;;;5.39;100.00;97355.71;270606;1269;22535;-90
2024/01/04 17:48:30;;;;;;;5.70;3.10;;;;;;;5.41;100.00;97364.89;270239;1269;22568;-89
2024/01/04 17:54:37;;;;;;;7.70;3.80;;;;;;;5.43;100.00;97359.61;271685;1265;22336;-88
2024/01/04 18:00:42;;;;;;;9.70;3.70;;;;;;;5.46;100.00;97365.76;273164;1272;22326;-91
2024/01/04 18:07:04;;;;;;;6.70;2.50;;;;;;;5.49;100.00;97361.27;272949;1277;23817;-91
2024/01/04 18:13:16;;;;;;;3.90;1.70;;;;;;;5.49;100.00;97365.61;271919;1272;22204;-90
2024/01/04 18:19:19;;;;;;;3.40;1.50;;;;;;;5.43;100.00;97395.67;273050;1270;22357;-90
2024/01/04 18:25:25;;;;;;;;;;;;;;;5.37;100.00;97413.08;272740;1269;22528;-88
2024/01/04 18:31:35;;;;;;;4.00;1.70;;;;;;;5.32;100.00;97421.02;270675;1266;22869;-91
2024/01/04 18:37:40;;;;;;;3.80;2.00;;;;;;;5.28;100.00;97433.02;272429;1271;22279;-91
2024/01/04 18:43:44;;;;;;;7.50;2.70;;;;;;;5.26;100.00;97448.58;273054;1272;22694;-91
2024/01/04 18:49:49;;;;;;;8.80;3.80;;;;;;;5.26;100.00;97471.45;272969;1271;22567;-89
2024/01/04 18:56:30;;;;;;;6.20;3.20;;;;;;;5.20;100.00;97491.72;272838;1269;22213;-91
2024/01/04 19:02:35;;;;;;;7.60;3.30;;;;;;;4.99;100.00;97501.92;273200;1277;22327;-90
2024/01/04 19:08:38;;;;;;;6.30;2.80;;;;;;;4.80;100.00;97512.73;273171;1272;22184;-90
2024/01/04 19:15:10;;;;;;;4.10;2.30;;;;;;;4.69;100.00;97524.02;271468;1274;22396;-90
2024/01/04 19:21:33;;;;;;;5.80;2.60;;;;;;;4.62;100.00;97538.41;272422;1269;22550;-89
2024/01/04 19:27:39;;;;;;;7.60;3.00;;;;;;;4.59;100.00;97547.05;272284;1269;23498;-89
2024/01/04 19:33:41;;;;;;;5.70;2.60;;;;;;;4.57;100.00;97562.52;272753;1271;22534;-89
2024/01/04 19:39:57;;;;;;;;;;;;;;;4.53;100.00;97573.39;272461;1269;24219;-89
2024/01/04 19:46:25;;;;;;;4.60;2.10;;;;;;;4.46;100.00;97593.12;271309;1275;22239;-92
2024/01/04 19:53:04;;;;;;;3.50;2.40;;;;;;;4.37;100.00;97604.46;271692;1270;22734;-90
2024/01/04 19:59:21;;;;;;;4.20;2.00;;;;;;;4.20;100.00;97613.68;273490;1270;22366;-90
2024/01/04 20:06:13;;;;;;;4.90;2.00;;;;;;;4.04;100.00;97626.91;272622;1272;22553;-90
2024/01/04 20:12:18;;;;;;;4.40;2.30;;;;;;;3.95;100.00;97644.58;273066;1274;23751;-88
2024/01/04 20:18:25;;;;;;;5.20;2.40;;;;;;;3.90;100.00;97645.50;273019;1270;23536;-90
2024/01/04 20:24:30;;;;;;;4.60;2.20;;;;;;;3.82;100.00;97651.09;273049;1269;22184;-88
2024/01/04 20:30:33;;;;;;;5.30;2.30;;;;;;;3.79;100.00;97665.26;273265;1262;23027;-90
2024/01/04 20:36:45;;;;;;;7.90;2.90;;;;;;;3.77;100.00;97669.19;273317;1260;22578;-91
2024/01/04 20:42:48;;;;;;;4.50;2.70;;;;;;;3.73;100.00;97679.19;273479;1269;22249;-90
2024/01/04 20:49:36;;;;;;;6.90;4.00;;;;;;;3.73;100.00;97690.16;273468;1275;22551;-92
2024/01/04 20:55:48;;;;;;;7.50;3.80;;;;;;;3.73;100.00;97706.55;271436;1270;22190;-92
2024/01/04 21:02:21;;;;;;;;;;;;;;;;;;;;;
2024/01/04 21:08:54;;;;;;;;;;;;;;;;;;;;;
2024/01/04 21:15:49;;;;;;;7.10;3.70;;;;;;;3.68;100.00;97746.13;271611;1275;22705;-90
2024/01/04 21:22:20;;;;;;;9.60;4.70;;;;;;;3.65;100.00;97760.23;272206;1276;22225;-91
2024/01/04 21:28:27;;;;;;;7.50;4.20;;;;;;;3.64;100.00;97770.71;271579;1275;22229;-90
2024/01/04 21:34:45;;;;;;;9.00;4.80;;;;;;;3.62;100.00;97783.66;273428;1268;23502;-91
2024/01/04 21:41:01;;;;;;;15.60;6.40;;;;;;;3.57;100.00;97786.52;272250;1270;22331;-92
2024/01/04 21:47:28;;;;;;;10.40;5.60;;;;;;;3.54;100.00;97784.13;270601;1270;22568;-91
2024/01/04 21:53:48;;;;;;;8.90;4.70;;;;;;;3.46;100.00;97795.03;272607;1272;22340;-92
2024/01/04 21:59:55;;;;;;;10.20;4.60;;;;;;;3.35;100.00;97800.54;270650;1269;22608;-91
2024/01/04 22:06:09;;;;;;;6.00;3.60;;;;;;;3.24;100.00;97816.91;272644;1275;22177;-91
2024/01/04 22:12:44;;;;;;;8.10;3.60;;;;;;;3.15;100.00;97830.96;273575;1276;22210;-92
2024/01/04 22:19:11;;;;;;;6.00;3.40;;;;;;;3.12;100.00;97841.31;271596;1269;23287;-91
2024/01/04 22:33:24;;;;;;;;;;;;;;;;;;;;;
2024/01/04 22:39:33;;;;;;;3.00;1.60;;;;;;;2.75;100.00;97864.64;271757;1272;23648;-91
2024/01/04 22:45:45;;;;;;;4.40;1.90;;;;;;;2.63;100.00;97881.66;271918;1269;23247;-91
2024/01/04 22:52:05;;;;;;;3.00;1.40;;;;;;;2.57;100.00;97902.52;272217;1276;22203;-90
2024/01/04 22:58:20;;;;;;;7.10;2.40;;;;;;;2.53;100.00;97925.71;272710;1268;22233;-92
2024/01/04 23:04:41;;;;;;;5.30;2.30;;;;;;;2.49;100.00;97946.23;271888;1273;22579;-91
2024/01/04 23:10:44;;;;;;;4.10;1.90;;;;;;;2.45;100.00;97965.64;271228;1275;22558;-89
2024/01/04 23:16:59;;;;;;;3.90;2.20;;;;;;;2.42;100.00;97977.15;272885;1269;22218;-90
2024/01/04 23:23:05;;;;;;;6.40;4.00;;;;;;;2.34;100.00;97987.44;272522;1266;22319;-90
2024/01/04 23:29:13;;;;;;;8.90;6.20;;;;;;;2.24;100.00;97995.02;273387;1275;22400;-89
2024/01/04 23:35:41;;;;;;;8.50;5.80;;;;;;;2.18;100.00;98007.13;273448;1267;22298;-90
2024/01/04 23:41:44;;;;;;;12.40;7.30;;;;;;;2.11;100.00;98019.34;273486;1276;23327;-91
2024/01/04 23:47:51;;;;;;;8.00;5.10;;;;;;;2.09;100.00;98022.13;271876;1273;23354;-92
2024/01/04 23:54:32;;;;;;;8.10;4.30;;;;;;;2.06;100.00;98040.08;272487;1272;22574;-91
